sensor_id;sensor_type;location;lat;lon;timestamp;pressure;altitude;pressure_sealevel;temperature;humidity
9249;BME280;4660;41.768;26.198;2023-02-15T00:01:51;102197.84;;;2.97;100.00
9249;BME280;4660;41.768;26.198;2023-02-15T00:04:19;102189.16;;;2.92;100.00
9249;BME280;4660;41.768;26.198;2023-02-15T00:06:45;102192.09;;;2.85;100.00
9249;BME280;4660;41.768;26.198;2023-02-15T00:09:11;102187.09;;;2.75;100.00
9249;BME280;4660;41.768;26.198;2023-02-15T00:11:38;102189.84;;;3.21;100.00
9249;BME280;4660;41.768;26.198;2023-02-15T00:14:21;102171.66;;;3.10;100.00
9249;BME280;4660;41.768;26.198;2023-02-15T00:16:48;102197.97;;;2.94;100.00
9249;BME280;4660;41.768;26.198;2023-02-15T00:19:16;102210.19;;;2.98;100.00
9249;BME280;4660;41.768;26.198;2023-02-15T00:21:42;102199.28;;;3.06;100.00
9249;BME280;4660;41.768;26.198;2023-02-15T00:24:10;102195.88;;;3.02;100.00
9249;BME280;4660;41.768;26.198;2023-02-15T00:26:38;102199.25;;;3.08;100.00
9249;BME280;4660;41.768;26.198;2023-02-15T00:29:03;102198.88;;;2.93;100.00
9249;BME280;4660;41.768;26.198;2023-02-15T00:31:30;102201.53;;;2.93;100.00
9249;BME280;4660;41.768;26.198;2023-02-15T00:34:09;102196.16;;;2.70;100.00
9249;BME280;4660;41.768;26.198;2023-02-15T00:36:36;102199.09;;;2.87;100.00
9249;BME280;4660;41.768;26.198;2023-02-15T00:39:01;102202.19;;;2.75;100.00
9249;BME280;4660;41.768;26.198;2023-02-15T00:41:27;102201.97;;;2.81;100.00
9249;BME280;4660;41.768;26.198;2023-02-15T00:43:52;102201.75;;;2.87;100.00
9249;BME280;4660;41.768;26.198;2023-02-15T00:46:18;102210.88;;;2.80;100.00
9249;BME280;4660;41.768;26.198;2023-02-15T00:48:43;102201.00;;;2.59;100.00
9249;BME280;4660;41.768;26.198;2023-02-15T00:51:09;102203.06;;;2.75;100.00
9249;BME280;4660;41.768;26.198;2023-02-15T00:53:34;102207.06;;;2.87;100.00
9249;BME280;4660;41.768;26.198;2023-02-15T00:56:00;102204.16;;;3.18;100.00
9249;BME280;4660;41.768;26.198;2023-02-15T00:58:25;102200.81;;;3.37;100.00
9249;BME280;4660;41.768;26.198;2023-02-15T01:00:51;102203.63;;;3.32;100.00
9249;BME280;4660;41.768;26.198;2023-02-15T01:03:19;102196.16;;;3.18;100.00
9249;BME280;4660;41.768;26.198;2023-02-15T01:05:46;102178.28;;;2.98;100.00
9249;BME280;4660;41.768;26.198;2023-02-15T01:08:12;102201.28;;;2.99;100.00
9249;BME280;4660;41.768;26.198;2023-02-15T01:10:38;102185.16;;;2.81;100.00
9249;BME280;4660;41.768;26.198;2023-02-15T01:13:03;102194.34;;;2.72;100.00
9249;BME280;4660;41.768;26.198;2023-02-15T01:15:29;102190.47;;;2.81;100.00
9249;BME280;4660;41.768;26.198;2023-02-15T01:17:55;102200.34;;;2.77;100.00
9249;BME280;4660;41.768;26.198;2023-02-15T01:20:26;102183.09;;;2.64;100.00
9249;BME280;4660;41.768;26.198;2023-02-15T01:22:52;102191.03;;;2.65;100.00
9249;BME280;4660;41.768;26.198;2023-02-15T01:25:20;102185.75;;;2.64;100.00
9249;BME280;4660;41.768;26.198;2023-02-15T01:27:47;102165.00;;;2.50;100.00
9249;BME280;4660;41.768;26.198;2023-02-15T01:30:13;102184.72;;;2.68;100.00
9249;BME280;4660;41.768;26.198;2023-02-15T01:32:40;102179.84;;;2.56;100.00
9249;BME280;4660;41.768;26.198;2023-02-15T01:35:06;102185.47;;;2.71;100.00
9249;BME280;4660;41.768;26.198;2023-02-15T01:37:33;102178.75;;;2.86;100.00
9249;BME280;4660;41.768;26.198;2023-02-15T01:39:59;102165.34;;;2.89;100.00
9249;BME280;4660;41.768;26.198;2023-02-15T01:42:26;102173.56;;;3.07;100.00
9249;BME280;4660;41.768;26.198;2023-02-15T01:44:55;102170.16;;;3.03;100.00
9249;BME280;4660;41.768;26.198;2023-02-15T01:47:38;102122.25;;;2.81;100.00
9249;BME280;4660;41.768;26.198;2023-02-15T01:50:11;102165.03;;;3.22;100.00
9249;BME280;4660;41.768;26.198;2023-02-15T01:52:42;102168.66;;;3.19;100.00
9249;BME280;4660;41.768;26.198;2023-02-15T01:55:08;102161.53;;;3.20;100.00
9249;BME280;4660;41.768;26.198;2023-02-15T01:57:34;102172.94;;;3.23;100.00
9249;BME280;4660;41.768;26.198;2023-02-15T02:00:03;102181.31;;;3.36;100.00
9249;BME280;4660;41.768;26.198;2023-02-15T02:02:29;102171.94;;;3.26;100.00
9249;BME280;4660;41.768;26.198;2023-02-15T02:05:00;102181.41;;;3.33;100.00
9249;BME280;4660;41.768;26.198;2023-02-15T02:07:33;102174.94;;;3.40;100.00
9249;BME280;4660;41.768;26.198;2023-02-15T02:10:01;102176.00;;;3.36;100.00
9249;BME280;4660;41.768;26.198;2023-02-15T02:12:27;102180.25;;;3.40;100.00
9249;BME280;4660;41.768;26.198;2023-02-15T02:14:53;102184.94;;;3.34;100.00
9249;BME280;4660;41.768;26.198;2023-02-15T02:26:21;102212.00;;;3.21;100.00
9249;BME280;4660;41.768;26.198;2023-02-15T02:34:17;102204.88;;;2.98;100.00
9249;BME280;4660;41.768;26.198;2023-02-15T02:37:07;102203.66;;;3.07;100.00
9249;BME280;4660;41.768;26.198;2023-02-15T02:45:16;102197.59;;;3.27;100.00
9249;BME280;4660;41.768;26.198;2023-02-15T02:50:40;102167.56;;;3.25;100.00
9249;BME280;4660;41.768;26.198;2023-02-15T02:53:05;102202.03;;;3.50;100.00
9249;BME280;4660;41.768;26.198;2023-02-15T02:55:36;102201.88;;;3.54;100.00
9249;BME280;4660;41.768;26.198;2023-02-15T03:00:45;102197.72;;;3.47;100.00
9249;BME280;4660;41.768;26.198;2023-02-15T03:03:32;102203.03;;;3.47;100.00
9249;BME280;4660;41.768;26.198;2023-02-15T03:06:05;102191.03;;;3.37;100.00
9249;BME280;4660;41.768;26.198;2023-02-15T03:08:43;102194.13;;;3.48;100.00
9249;BME280;4660;41.768;26.198;2023-02-15T03:11:11;102196.28;;;3.39;100.00
9249;BME280;4660;41.768;26.198;2023-02-15T03:13:37;102194.94;;;3.27;100.00
9249;BME280;4660;41.768;26.198;2023-02-15T03:16:04;102209.19;;;3.26;100.00
9249;BME280;4660;41.768;26.198;2023-02-15T03:18:57;102207.81;;;3.16;100.00
9249;BME280;4660;41.768;26.198;2023-02-15T03:24:07;102192.66;;;2.93;100.00
9249;BME280;4660;41.768;26.198;2023-02-15T03:26:36;102208.88;;;3.10;100.00
9249;BME280;4660;41.768;26.198;2023-02-15T03:29:05;102212.06;;;3.20;100.00
9249;BME280;4660;41.768;26.198;2023-02-15T03:31:38;102221.53;;;3.27;100.00
9249;BME280;4660;41.768;26.198;2023-02-15T03:34:08;102221.31;;;3.10;100.00
9249;BME280;4660;41.768;26.198;2023-02-15T03:36:50;102225.94;;;3.04;100.00
9249;BME280;4660;41.768;26.198;2023-02-15T03:42:13;102222.81;;;2.93;100.00
9249;BME280;4660;41.768;26.198;2023-02-15T03:45:01;102227.22;;;3.18;100.00
9249;BME280;4660;41.768;26.198;2023-02-15T03:47:43;102228.09;;;3.18;100.00
9249;BME280;4660;41.768;26.198;2023-02-15T03:50:11;102231.44;;;3.23;100.00
9249;BME280;4660;41.768;26.198;2023-02-15T03:52:58;102204.78;;;3.01;100.00
9249;BME280;4660;41.768;26.198;2023-02-15T03:55:25;102222.56;;;2.99;100.00
9249;BME280;4660;41.768;26.198;2023-02-15T03:57:51;102229.94;;;3.16;100.00
9249;BME280;4660;41.768;26.198;2023-02-15T04:00:37;102233.84;;;3.06;100.00
9249;BME280;4660;41.768;26.198;2023-02-15T04:05:56;102242.81;;;3.27;100.00
9249;BME280;4660;41.768;26.198;2023-02-15T04:08:22;102261.28;;;3.31;100.00
9249;BME280;4660;41.768;26.198;2023-02-15T04:11:08;102262.06;;;3.10;100.00
9249;BME280;4660;41.768;26.198;2023-02-15T04:13:33;102264.72;;;3.10;100.00
9249;BME280;4660;41.768;26.198;2023-02-15T04:15:59;102262.06;;;3.10;100.00
9249;BME280;4660;41.768;26.198;2023-02-15T04:18:35;102266.88;;;3.00;100.00
9249;BME280;4660;41.768;26.198;2023-02-15T04:21:21;102268.38;;;3.08;100.00
9249;BME280;4660;41.768;26.198;2023-02-15T04:24:07;102254.06;;;2.87;100.00
9249;BME280;4660;41.768;26.198;2023-02-15T04:26:51;102273.34;;;2.92;100.00
9249;BME280;4660;41.768;26.198;2023-02-15T04:29:21;102267.53;;;3.06;100.00
9249;BME280;4660;41.768;26.198;2023-02-15T04:31:47;102285.50;;;3.24;100.00
9249;BME280;4660;41.768;26.198;2023-02-15T04:34:14;102285.50;;;3.24;100.00
9249;BME280;4660;41.768;26.198;2023-02-15T04:36:40;102287.66;;;3.13;100.00
9249;BME280;4660;41.768;26.198;2023-02-15T04:39:06;102280.47;;;3.16;100.00
9249;BME280;4660;41.768;26.198;2023-02-15T04:41:33;102277.38;;;3.03;100.00
9249;BME280;4660;41.768;26.198;2023-02-15T04:43:59;102295.78;;;3.10;100.00
9249;BME280;4660;41.768;26.198;2023-02-15T04:46:26;102301.91;;;3.12;100.00
9249;BME280;4660;41.768;26.198;2023-02-15T04:48:52;102301.53;;;3.22;100.00
9249;BME280;4660;41.768;26.198;2023-02-15T04:51:17;102304.47;;;3.15;100.00
9249;BME280;4660;41.768;26.198;2023-02-15T04:53:43;102315.56;;;3.26;100.00
9249;BME280;4660;41.768;26.198;2023-02-15T04:56:08;102307.50;;;3.29;100.00
9249;BME280;4660;41.768;26.198;2023-02-15T04:58:34;102324.06;;;3.36;100.00
9249;BME280;4660;41.768;26.198;2023-02-15T05:01:00;102317.88;;;3.35;100.00
9249;BME280;4660;41.768;26.198;2023-02-15T05:03:26;102324.25;;;3.31;100.00
9249;BME280;4660;41.768;26.198;2023-02-15T05:05:52;102323.47;;;3.27;100.00
9249;BME280;4660;41.768;26.198;2023-02-15T05:08:18;102331.75;;;3.20;100.00
9249;BME280;4660;41.768;26.198;2023-02-15T05:10:43;102346.69;;;3.24;100.00
9249;BME280;4660;41.768;26.198;2023-02-15T05:13:09;102351.88;;;3.27;100.00
9249;BME280;4660;41.768;26.198;2023-02-15T05:15:34;102333.81;;;3.12;100.00
9249;BME280;4660;41.768;26.198;2023-02-15T05:18:00;102361.91;;;3.19;100.00
9249;BME280;4660;41.768;26.198;2023-02-15T05:20:27;102363.81;;;3.40;100.00
9249;BME280;4660;41.768;26.198;2023-02-15T05:22:55;102359.75;;;3.55;100.00
9249;BME280;4660;41.768;26.198;2023-02-15T05:25:20;102370.38;;;3.55;100.00
9249;BME280;4660;41.768;26.198;2023-02-15T05:28:05;102378.44;;;3.53;100.00
9249;BME280;4660;41.768;26.198;2023-02-15T05:31:10;102384.31;;;3.38;100.00
9249;BME280;4660;41.768;26.198;2023-02-15T05:33:35;102389.09;;;3.77;100.00
9249;BME280;4660;41.768;26.198;2023-02-15T05:36:02;102381.13;;;3.77;100.00
9249;BME280;4660;41.768;26.198;2023-02-15T05:38:28;102375.56;;;3.83;100.00
9249;BME280;4660;41.768;26.198;2023-02-15T05:40:54;102400.69;;;3.99;100.00
9249;BME280;4660;41.768;26.198;2023-02-15T05:43:20;102403.00;;;3.85;100.00
9249;BME280;4660;41.768;26.198;2023-02-15T05:45:50;102410.38;;;3.77;100.00
9249;BME280;4660;41.768;26.198;2023-02-15T05:48:17;102396.72;;;3.63;100.00
9249;BME280;4660;41.768;26.198;2023-02-15T05:50:43;102400.59;;;3.54;100.00
9249;BME280;4660;41.768;26.198;2023-02-15T05:53:09;102400.84;;;3.46;100.00
9249;BME280;4660;41.768;26.198;2023-02-15T05:55:40;102407.44;;;3.36;100.00
9249;BME280;4660;41.768;26.198;2023-02-15T05:58:07;102409.78;;;3.45;100.00
9249;BME280;4660;41.768;26.198;2023-02-15T06:00:34;102389.28;;;3.47;100.00
9249;BME280;4660;41.768;26.198;2023-02-15T06:02:59;102416.88;;;3.70;100.00
9249;BME280;4660;41.768;26.198;2023-02-15T06:05:25;102395.63;;;3.68;100.00
9249;BME280;4660;41.768;26.198;2023-02-15T06:07:50;102403.09;;;3.58;100.00
9249;BME280;4660;41.768;26.198;2023-02-15T06:10:16;102413.53;;;3.65;100.00
9249;BME280;4660;41.768;26.198;2023-02-15T06:12:44;102411.59;;;3.68;100.00
9249;BME280;4660;41.768;26.198;2023-02-15T06:15:09;102409.00;;;3.67;100.00
9249;BME280;4660;41.768;26.198;2023-02-15T06:17:35;102426.16;;;3.83;100.00
9249;BME280;4660;41.768;26.198;2023-02-15T06:20:00;102418.94;;;3.86;100.00
9249;BME280;4660;41.768;26.198;2023-02-15T06:22:26;102409.47;;;3.78;100.00
9249;BME280;4660;41.768;26.198;2023-02-15T06:24:52;102423.03;;;3.95;100.00
9249;BME280;4660;41.768;26.198;2023-02-15T06:27:17;102402.75;;;3.91;100.00
9249;BME280;4660;41.768;26.198;2023-02-15T06:29:43;102411.41;;;3.98;100.00
9249;BME280;4660;41.768;26.198;2023-02-15T06:32:08;102425.59;;;4.22;100.00
9249;BME280;4660;41.768;26.198;2023-02-15T06:34:34;102441.69;;;4.19;100.00
9249;BME280;4660;41.768;26.198;2023-02-15T06:37:00;102434.38;;;4.47;100.00
9249;BME280;4660;41.768;26.198;2023-02-15T06:39:26;102430.66;;;4.51;100.00
9249;BME280;4660;41.768;26.198;2023-02-15T06:41:51;102437.13;;;4.67;100.00
9249;BME280;4660;41.768;26.198;2023-02-15T06:44:17;102416.91;;;4.62;100.00
9249;BME280;4660;41.768;26.198;2023-02-15T06:46:43;102434.00;;;4.78;100.00
9249;BME280;4660;41.768;26.198;2023-02-15T06:49:08;102447.22;;;4.59;100.00
9249;BME280;4660;41.768;26.198;2023-02-15T06:51:34;102430.53;;;4.54;100.00
9249;BME280;4660;41.768;26.198;2023-02-15T06:54:00;102442.84;;;4.80;100.00
9249;BME280;4660;41.768;26.198;2023-02-15T06:56:25;102388.03;;;4.51;100.00
9249;BME280;4660;41.768;26.198;2023-02-15T06:58:52;102441.41;;;4.93;100.00
9249;BME280;4660;41.768;26.198;2023-02-15T07:01:18;102441.13;;;5.00;100.00
9249;BME280;4660;41.768;26.198;2023-02-15T07:03:44;102440.66;;;4.90;100.00
9249;BME280;4660;41.768;26.198;2023-02-15T07:06:09;102444.75;;;4.98;100.00
9249;BME280;4660;41.768;26.198;2023-02-15T07:08:36;102438.06;;;4.88;100.00
9249;BME280;4660;41.768;26.198;2023-02-15T07:11:04;102444.56;;;4.81;100.00
9249;BME280;4660;41.768;26.198;2023-02-15T07:13:48;102432.09;;;4.82;100.00
9249;BME280;4660;41.768;26.198;2023-02-15T07:16:15;102426.38;;;4.91;100.00
9249;BME280;4660;41.768;26.198;2023-02-15T07:18:45;102445.72;;;5.18;100.00
9249;BME280;4660;41.768;26.198;2023-02-15T07:21:13;102441.88;;;5.25;100.00
9249;BME280;4660;41.768;26.198;2023-02-15T07:23:39;102441.63;;;5.31;100.00
9249;BME280;4660;41.768;26.198;2023-02-15T07:26:06;102419.25;;;5.34;100.00
9249;BME280;4660;41.768;26.198;2023-02-15T07:28:33;102442.16;;;5.60;100.00
9249;BME280;4660;41.768;26.198;2023-02-15T07:31:01;102438.63;;;5.59;100.00
9249;BME280;4660;41.768;26.198;2023-02-15T07:33:27;102453.44;;;5.66;100.00
9249;BME280;4660;41.768;26.198;2023-02-15T07:35:58;102440.44;;;5.59;100.00
9249;BME280;4660;41.768;26.198;2023-02-15T07:38:27;102434.41;;;5.53;100.00
9249;BME280;4660;41.768;26.198;2023-02-15T07:40:58;102442.50;;;5.72;100.00
9249;BME280;4660;41.768;26.198;2023-02-15T07:43:25;102435.00;;;5.80;100.00
9249;BME280;4660;41.768;26.198;2023-02-15T07:45:50;102416.16;;;5.84;100.00
9249;BME280;4660;41.768;26.198;2023-02-15T07:48:16;102431.13;;;5.88;100.00
9249;BME280;4660;41.768;26.198;2023-02-15T07:50:43;102430.47;;;6.03;100.00
9249;BME280;4660;41.768;26.198;2023-02-15T07:53:11;102435.38;;;6.12;100.00
9249;BME280;4660;41.768;26.198;2023-02-15T07:55:37;102445.28;;;6.10;100.00
9249;BME280;4660;41.768;26.198;2023-02-15T07:58:03;102437.84;;;6.35;100.00
9249;BME280;4660;41.768;26.198;2023-02-15T08:00:32;102402.69;;;6.45;99.38
9249;BME280;4660;41.768;26.198;2023-02-15T08:03:19;102436.94;;;6.92;98.11
9249;BME280;4660;41.768;26.198;2023-02-15T08:05:45;102422.50;;;6.77;95.17
9249;BME280;4660;41.768;26.198;2023-02-15T08:08:11;102431.88;;;6.85;96.44
9249;BME280;4660;41.768;26.198;2023-02-15T08:11:06;102425.53;;;6.88;96.15
9249;BME280;4660;41.768;26.198;2023-02-15T08:13:56;102404.88;;;6.73;97.97
9249;BME280;4660;41.768;26.198;2023-02-15T08:16:35;102428.94;;;7.09;96.95
9249;BME280;4660;41.768;26.198;2023-02-15T08:21:32;102437.94;;;7.60;94.67
9249;BME280;4660;41.768;26.198;2023-02-15T08:23:58;102428.72;;;7.98;93.06
9249;BME280;4660;41.768;26.198;2023-02-15T08:26:25;102435.59;;;8.20;89.50
9249;BME280;4660;41.768;26.198;2023-02-15T08:28:51;102403.50;;;8.03;89.25
9249;BME280;4660;41.768;26.198;2023-02-15T08:31:17;102411.66;;;7.84;89.53
9249;BME280;4660;41.768;26.198;2023-02-15T08:33:49;102410.66;;;7.69;90.29
9249;BME280;4660;41.768;26.198;2023-02-15T08:36:18;102419.97;;;7.62;91.40
9249;BME280;4660;41.768;26.198;2023-02-15T08:38:44;102430.59;;;7.81;90.57
9249;BME280;4660;41.768;26.198;2023-02-15T08:43:42;102411.53;;;7.69;89.27
9249;BME280;4660;41.768;26.198;2023-02-15T08:46:10;102422.66;;;7.79;89.24
9249;BME280;4660;41.768;26.198;2023-02-15T08:48:36;102432.56;;;7.77;90.23
9249;BME280;4660;41.768;26.198;2023-02-15T08:51:15;102422.69;;;7.95;90.54
9249;BME280;4660;41.768;26.198;2023-02-15T08:53:44;102421.81;;;7.94;90.25
9249;BME280;4660;41.768;26.198;2023-02-15T08:56:11;102435.59;;;8.04;89.61
9249;BME280;4660;41.768;26.198;2023-02-15T08:58:37;102427.94;;;7.96;87.86
9249;BME280;4660;41.768;26.198;2023-02-15T09:01:32;102433.94;;;8.02;87.75
9249;BME280;4660;41.768;26.198;2023-02-15T09:04:00;102413.56;;;8.15;87.26
9249;BME280;4660;41.768;26.198;2023-02-15T09:06:27;102402.22;;;8.10;86.22
9249;BME280;4660;41.768;26.198;2023-02-15T09:08:54;102429.47;;;8.51;85.03
9249;BME280;4660;41.768;26.198;2023-02-15T09:11:28;102399.16;;;8.49;83.97
9249;BME280;4660;41.768;26.198;2023-02-15T09:14:01;102419.75;;;8.80;82.80
9249;BME280;4660;41.768;26.198;2023-02-15T09:16:29;102428.16;;;8.74;82.44
9249;BME280;4660;41.768;26.198;2023-02-15T09:18:56;102424.63;;;8.73;82.48
9249;BME280;4660;41.768;26.198;2023-02-15T09:21:26;102409.03;;;8.64;82.49
9249;BME280;4660;41.768;26.198;2023-02-15T09:23:58;102417.97;;;8.65;81.87
9249;BME280;4660;41.768;26.198;2023-02-15T09:26:26;102412.41;;;8.68;81.39
9249;BME280;4660;41.768;26.198;2023-02-15T09:28:54;102411.78;;;8.78;79.87
9249;BME280;4660;41.768;26.198;2023-02-15T09:31:23;102414.06;;;8.86;79.37
9249;BME280;4660;41.768;26.198;2023-02-15T09:33:49;102419.47;;;9.00;78.05
9249;BME280;4660;41.768;26.198;2023-02-15T09:36:32;102392.63;;;8.85;78.41
9249;BME280;4660;41.768;26.198;2023-02-15T09:39:21;102402.78;;;8.95;78.21
9249;BME280;4660;41.768;26.198;2023-02-15T09:50:19;102394.56;;;9.13;77.48
9249;BME280;4660;41.768;26.198;2023-02-15T10:01:53;102387.03;;;10.06;72.13
9249;BME280;4660;41.768;26.198;2023-02-15T10:12:53;102381.94;;;10.44;68.02
9249;BME280;4660;41.768;26.198;2023-02-15T10:20:35;102377.66;;;10.55;67.23
9249;BME280;4660;41.768;26.198;2023-02-15T10:26:03;102357.59;;;10.46;68.30
9249;BME280;4660;41.768;26.198;2023-02-15T10:28:56;102359.53;;;10.71;67.61
9249;BME280;4660;41.768;26.198;2023-02-15T10:31:32;102338.78;;;10.86;66.08
9249;BME280;4660;41.768;26.198;2023-02-15T10:34:07;102346.69;;;10.89;66.32
9249;BME280;4660;41.768;26.198;2023-02-15T10:37:11;102338.63;;;11.01;66.18
9249;BME280;4660;41.768;26.198;2023-02-15T10:39:56;102331.63;;;10.59;65.28
9249;BME280;4660;41.768;26.198;2023-02-15T10:48:22;102333.44;;;10.32;67.90
9249;BME280;4660;41.768;26.198;2023-02-15T10:50:52;102343.44;;;10.15;68.39
9249;BME280;4660;41.768;26.198;2023-02-15T11:06:50;102319.41;;;10.81;64.11
9249;BME280;4660;41.768;26.198;2023-02-15T11:09:20;102329.84;;;10.72;65.45
9249;BME280;4660;41.768;26.198;2023-02-15T11:11:54;102323.88;;;10.67;65.48
9249;BME280;4660;41.768;26.198;2023-02-15T11:14:37;102316.78;;;10.66;65.60
9249;BME280;4660;41.768;26.198;2023-02-15T11:17:11;102318.00;;;10.48;65.31
9249;BME280;4660;41.768;26.198;2023-02-15T11:19:43;102311.69;;;10.62;65.83
9249;BME280;4660;41.768;26.198;2023-02-15T11:22:13;102311.69;;;10.89;65.22
9249;BME280;4660;41.768;26.198;2023-02-15T11:24:43;102309.72;;;10.91;65.21
9249;BME280;4660;41.768;26.198;2023-02-15T11:32:24;102308.69;;;10.93;64.49
9249;BME280;4660;41.768;26.198;2023-02-15T11:34:56;102297.56;;;10.98;63.63
9249;BME280;4660;41.768;26.198;2023-02-15T11:37:29;102294.34;;;11.06;62.89
9249;BME280;4660;41.768;26.198;2023-02-15T11:39:56;102294.69;;;11.01;62.50
9249;BME280;4660;41.768;26.198;2023-02-15T11:42:25;102294.25;;;10.94;63.17
9249;BME280;4660;41.768;26.198;2023-02-15T11:47:20;102281.66;;;11.08;62.79
9249;BME280;4660;41.768;26.198;2023-02-15T11:49:45;102292.22;;;11.23;63.88
9249;BME280;4660;41.768;26.198;2023-02-15T11:52:17;102284.25;;;11.22;63.62
9249;BME280;4660;41.768;26.198;2023-02-15T11:54:49;102272.72;;;11.33;62.17
9249;BME280;4660;41.768;26.198;2023-02-15T11:57:37;102286.41;;;11.80;60.66
9249;BME280;4660;41.768;26.198;2023-02-15T12:02:48;102266.53;;;11.69;60.14
9249;BME280;4660;41.768;26.198;2023-02-15T12:05:17;102265.38;;;11.60;60.52
9249;BME280;4660;41.768;26.198;2023-02-15T12:07:48;102264.28;;;11.50;59.07
9249;BME280;4660;41.768;26.198;2023-02-15T12:12:43;102263.47;;;11.24;57.76
9249;BME280;4660;41.768;26.198;2023-02-15T12:15:14;102227.03;;;10.80;57.60
9249;BME280;4660;41.768;26.198;2023-02-15T12:17:40;102257.06;;;10.99;58.44
9249;BME280;4660;41.768;26.198;2023-02-15T12:20:29;102246.94;;;10.90;59.92
9249;BME280;4660;41.768;26.198;2023-02-15T12:23:14;102263.31;;;11.00;59.54
9249;BME280;4660;41.768;26.198;2023-02-15T12:25:54;102252.66;;;11.11;59.89
9249;BME280;4660;41.768;26.198;2023-02-15T12:28:40;102253.22;;;11.29;59.35
9249;BME280;4660;41.768;26.198;2023-02-15T12:31:19;102252.69;;;11.37;58.20
9249;BME280;4660;41.768;26.198;2023-02-15T12:33:46;102237.13;;;11.40;58.34
9249;BME280;4660;41.768;26.198;2023-02-15T12:36:17;102237.56;;;11.47;58.17
9249;BME280;4660;41.768;26.198;2023-02-15T12:41:31;102246.50;;;11.35;57.78
9249;BME280;4660;41.768;26.198;2023-02-15T12:44:16;102229.28;;;11.12;57.92
9249;BME280;4660;41.768;26.198;2023-02-15T12:47:05;102232.97;;;11.36;57.28
9249;BME280;4660;41.768;26.198;2023-02-15T12:49:33;102233.78;;;11.49;55.45
9249;BME280;4660;41.768;26.198;2023-02-15T12:52:22;102252.44;;;11.65;54.88
9249;BME280;4660;41.768;26.198;2023-02-15T12:54:49;102212.84;;;11.66;54.94
9249;BME280;4660;41.768;26.198;2023-02-15T12:57:33;102243.22;;;11.93;54.77
9249;BME280;4660;41.768;26.198;2023-02-15T13:00:25;102240.97;;;11.87;55.14
9249;BME280;4660;41.768;26.198;2023-02-15T13:02:54;102223.38;;;11.94;54.25
9249;BME280;4660;41.768;26.198;2023-02-15T13:05:41;102240.91;;;12.00;54.29
9249;BME280;4660;41.768;26.198;2023-02-15T13:08:17;102249.47;;;11.94;56.05
9249;BME280;4660;41.768;26.198;2023-02-15T13:11:04;102242.59;;;11.64;56.07
9249;BME280;4660;41.768;26.198;2023-02-15T13:13:34;102237.44;;;11.36;57.24
9249;BME280;4660;41.768;26.198;2023-02-15T13:16:37;102249.34;;;11.08;58.14
9249;BME280;4660;41.768;26.198;2023-02-15T13:21:52;102242.72;;;10.73;59.89
9249;BME280;4660;41.768;26.198;2023-02-15T13:24:25;102238.72;;;10.66;60.70
9249;BME280;4660;41.768;26.198;2023-02-15T13:26:55;102246.66;;;10.55;60.93
9249;BME280;4660;41.768;26.198;2023-02-15T13:29:28;102243.63;;;10.47;61.33
9249;BME280;4660;41.768;26.198;2023-02-15T13:31:57;102227.13;;;10.39;61.58
9249;BME280;4660;41.768;26.198;2023-02-15T13:34:28;102237.16;;;10.50;61.36
9249;BME280;4660;41.768;26.198;2023-02-15T13:56:45;102237.75;;;10.67;61.09
9249;BME280;4660;41.768;26.198;2023-02-15T14:10:44;102239.38;;;10.70;61.39
9249;BME280;4660;41.768;26.198;2023-02-15T14:31:54;102230.16;;;10.87;61.63
9249;BME280;4660;41.768;26.198;2023-02-15T14:34:24;102226.75;;;10.70;61.26
9249;BME280;4660;41.768;26.198;2023-02-15T14:36:51;102234.44;;;10.77;61.21
9249;BME280;4660;41.768;26.198;2023-02-15T14:53:33;102142.97;;;10.37;59.17
9249;BME280;4660;41.768;26.198;2023-02-15T15:01:15;102220.94;;;10.64;59.89
9249;BME280;4660;41.768;26.198;2023-02-15T15:03:55;102235.25;;;10.64;60.13
9249;BME280;4660;41.768;26.198;2023-02-15T15:06:27;102233.47;;;10.65;60.64
9249;BME280;4660;41.768;26.198;2023-02-15T15:08:58;102240.13;;;10.85;59.94
9249;BME280;4660;41.768;26.198;2023-02-15T15:13:58;102234.34;;;10.91;60.15
9249;BME280;4660;41.768;26.198;2023-02-15T15:19:04;102236.69;;;10.83;60.73
9249;BME280;4660;41.768;26.198;2023-02-15T15:27:54;102237.69;;;11.07;60.32
9249;BME280;4660;41.768;26.198;2023-02-15T15:44:26;102243.50;;;10.36;64.03
9249;BME280;4660;41.768;26.198;2023-02-15T15:49:55;102234.00;;;10.30;64.79
9249;BME280;4660;41.768;26.198;2023-02-15T15:52:21;102262.25;;;10.50;64.54
9249;BME280;4660;41.768;26.198;2023-02-15T15:54:51;102251.25;;;10.40;65.12
9249;BME280;4660;41.768;26.198;2023-02-15T15:59:59;102223.13;;;9.90;66.79
9249;BME280;4660;41.768;26.198;2023-02-15T16:02:28;102145.63;;;9.29;67.32
9249;BME280;4660;41.768;26.198;2023-02-15T16:04:53;102241.53;;;9.27;70.24
9249;BME280;4660;41.768;26.198;2023-02-15T16:10:01;102269.56;;;9.23;71.40
9249;BME280;4660;41.768;26.198;2023-02-15T16:12:34;102271.66;;;9.32;71.51
9249;BME280;4660;41.768;26.198;2023-02-15T16:15:05;102269.72;;;9.05;72.07
9249;BME280;4660;41.768;26.198;2023-02-15T16:17:41;102274.53;;;9.15;72.43
9249;BME280;4660;41.768;26.198;2023-02-15T16:20:17;102270.69;;;9.33;71.60
9249;BME280;4660;41.768;26.198;2023-02-15T16:22:50;102239.22;;;9.06;71.09
9249;BME280;4660;41.768;26.198;2023-02-15T16:25:34;102276.84;;;9.35;71.34
9249;BME280;4660;41.768;26.198;2023-02-15T16:28:11;102240.47;;;9.01;71.95
9249;BME280;4660;41.768;26.198;2023-02-15T16:30:38;102290.25;;;9.35;72.42
9249;BME280;4660;41.768;26.198;2023-02-15T16:33:13;102280.84;;;9.28;71.90
9249;BME280;4660;41.768;26.198;2023-02-15T16:35:41;102270.53;;;8.92;73.04
9249;BME280;4660;41.768;26.198;2023-02-15T16:47:30;102227.53;;;7.86;82.98
9249;BME280;4660;41.768;26.198;2023-02-15T16:50:02;102216.34;;;7.79;82.29
9249;BME280;4660;41.768;26.198;2023-02-15T16:52:29;102264.72;;;8.23;81.34
9249;BME280;4660;41.768;26.198;2023-02-15T16:55:02;102297.13;;;7.71;84.37
9249;BME280;4660;41.768;26.198;2023-02-15T16:57:36;102295.34;;;7.55;84.38
9249;BME280;4660;41.768;26.198;2023-02-15T17:00:22;102293.22;;;7.77;83.46
9249;BME280;4660;41.768;26.198;2023-02-15T17:03:11;102302.50;;;8.03;82.11
9249;BME280;4660;41.768;26.198;2023-02-15T17:05:50;102301.03;;;8.13;82.01